Gardi, Georgia
Current Conditions -  °F | °C
As of 2:55 PM on Saturday 25 Oct 2014 (Local Time) from KJES Reporting Station
Clear Clear  
Wind Chill: 79°   Ceiling: Unl
Heat Index: 79°   Visibility: 10mi
Dew Point: 48°   Wind: 5mph
Humidity: 34%   Direction: 50°NE
Pressure: 29.98"   Gusts: NA
Location:  31.5041°N, 81.8277°W
Report Text: KJES 251855Z AUTO 05004KT 10SM CLR 26/09 A2998 RMK AO2
Loading
Personal Weather Stations






























Interactive Weather Map
Tropical Storm Tracking
New forecast layout! Learn more

10-Day Weather Forecast

Advertisements
Track Severe Weather on mobile